Ackermanville, Pennsylvania
Current Conditions -  °F | °C
As of 3:51 AM on Friday 28 Nov 2014 (Local Time) from KABE Reporting Station
Haze Haze  
Wind Chill: 19°   Ceiling: Unl
Heat Index: 25°   Visibility: 6mi
Dew Point: 23°   Wind: 5mph
Humidity: 92%   Direction: 230°SW
Pressure: 30.1"   Gusts: NA
Location:  40.84°N, 75.22°W
Report Text: KABE 280851Z 23004KT 6SM BR CLR M04/M05 A3010 RMK AO2 SLP198 60000 T10391050 51005 $
Loading
Personal Weather Stations






























Interactive Weather Map New forecast layout! Learn more

10-Day Weather Forecast

Advertisements
Track Severe Weather on mobile